sensor_id;sensor_type;location;lat;lon;timestamp;P1;durP1;ratioP1;P2;durP2;ratioP2
17145;SDS011;8688;54.444;18.444;2023-07-31T00:01:50;4.20;;;2.38;;
17145;SDS011;8688;54.444;18.444;2023-07-31T00:04:17;4.78;;;2.28;;
17145;SDS011;8688;54.444;18.444;2023-07-31T00:06:45;3.17;;;2.08;;
17145;SDS011;8688;54.444;18.444;2023-07-31T00:09:12;5.25;;;2.35;;
17145;SDS011;8688;54.444;18.444;2023-07-31T00:11:40;3.83;;;2.25;;
17145;SDS011;8688;54.444;18.444;2023-07-31T00:14:09;3.58;;;2.42;;
17145;SDS011;8688;54.444;18.444;2023-07-31T00:16:36;3.92;;;2.17;;
17145;SDS011;8688;54.444;18.444;2023-07-31T00:19:03;6.68;;;2.05;;
17145;SDS011;8688;54.444;18.444;2023-07-31T00:21:31;5.68;;;2.10;;
17145;SDS011;8688;54.444;18.444;2023-07-31T00:23:58;3.72;;;1.90;;
17145;SDS011;8688;54.444;18.444;2023-07-31T00:26:26;5.40;;;1.85;;
17145;SDS011;8688;54.444;18.444;2023-07-31T00:28:53;2.83;;;1.95;;
17145;SDS011;8688;54.444;18.444;2023-07-31T00:31:22;2.38;;;1.80;;
17145;SDS011;8688;54.444;18.444;2023-07-31T00:33:50;3.00;;;1.63;;
17145;SDS011;8688;54.444;18.444;2023-07-31T00:36:17;4.20;;;2.10;;
17145;SDS011;8688;54.444;18.444;2023-07-31T00:38:45;3.30;;;2.20;;
17145;SDS011;8688;54.444;18.444;2023-07-31T00:41:12;2.58;;;1.80;;
17145;SDS011;8688;54.444;18.444;2023-07-31T00:43:40;4.45;;;2.13;;
17145;SDS011;8688;54.444;18.444;2023-07-31T00:46:07;2.70;;;1.90;;
17145;SDS011;8688;54.444;18.444;2023-07-31T00:48:37;4.32;;;2.10;;
17145;SDS011;8688;54.444;18.444;2023-07-31T00:51:05;4.43;;;2.30;;
17145;SDS011;8688;54.444;18.444;2023-07-31T00:53:34;4.00;;;2.30;;
17145;SDS011;8688;54.444;18.444;2023-07-31T00:56:02;6.32;;;2.83;;
17145;SDS011;8688;54.444;18.444;2023-07-31T00:58:30;4.70;;;2.60;;
17145;SDS011;8688;54.444;18.444;2023-07-31T01:00:58;3.95;;;2.60;;
17145;SDS011;8688;54.444;18.444;2023-07-31T01:03:26;3.75;;;2.58;;
17145;SDS011;8688;54.444;18.444;2023-07-31T01:05:58;4.40;;;2.75;;
17145;SDS011;8688;54.444;18.444;2023-07-31T01:08:35;2.90;;;2.20;;
17145;SDS011;8688;54.444;18.444;2023-07-31T01:11:08;3.78;;;2.20;;
17145;SDS011;8688;54.444;18.444;2023-07-31T01:13:42;3.78;;;2.50;;
17145;SDS011;8688;54.444;18.444;2023-07-31T01:16:10;4.00;;;2.20;;
17145;SDS011;8688;54.444;18.444;2023-07-31T01:18:38;3.90;;;2.40;;
17145;SDS011;8688;54.444;18.444;2023-07-31T01:21:12;4.45;;;2.50;;
17145;SDS011;8688;54.444;18.444;2023-07-31T01:23:57;2.97;;;2.13;;
17145;SDS011;8688;54.444;18.444;2023-07-31T01:26:43;5.47;;;2.63;;
17145;SDS011;8688;54.444;18.444;2023-07-31T01:29:16;4.35;;;2.45;;
17145;SDS011;8688;54.444;18.444;2023-07-31T01:31:50;2.75;;;2.20;;
17145;SDS011;8688;54.444;18.444;2023-07-31T01:34:22;3.45;;;2.38;;
17145;SDS011;8688;54.444;18.444;2023-07-31T01:36:49;3.55;;;2.20;;
17145;SDS011;8688;54.444;18.444;2023-07-31T01:39:17;3.10;;;2.30;;
17145;SDS011;8688;54.444;18.444;2023-07-31T01:41:48;3.10;;;2.28;;
17145;SDS011;8688;54.444;18.444;2023-07-31T01:44:16;5.57;;;2.15;;
17145;SDS011;8688;54.444;18.444;2023-07-31T01:46:43;3.05;;;2.00;;
17145;SDS011;8688;54.444;18.444;2023-07-31T01:49:11;4.55;;;2.20;;
17145;SDS011;8688;54.444;18.444;2023-07-31T01:51:38;4.50;;;2.00;;
17145;SDS011;8688;54.444;18.444;2023-07-31T01:54:06;5.20;;;1.70;;
17145;SDS011;8688;54.444;18.444;2023-07-31T01:56:33;2.80;;;1.70;;
17145;SDS011;8688;54.444;18.444;2023-07-31T01:59:02;3.72;;;2.03;;
17145;SDS011;8688;54.444;18.444;2023-07-31T02:01:30;4.82;;;1.77;;
17145;SDS011;8688;54.444;18.444;2023-07-31T02:03:58;2.25;;;1.60;;
17145;SDS011;8688;54.444;18.444;2023-07-31T02:06:25;2.08;;;1.70;;
17145;SDS011;8688;54.444;18.444;2023-07-31T02:08:53;3.25;;;1.98;;
17145;SDS011;8688;54.444;18.444;2023-07-31T02:11:20;3.75;;;1.70;;
17145;SDS011;8688;54.444;18.444;2023-07-31T02:13:48;6.45;;;1.90;;
17145;SDS011;8688;54.444;18.444;2023-07-31T02:16:17;3.25;;;1.67;;
17145;SDS011;8688;54.444;18.444;2023-07-31T02:18:44;2.63;;;1.95;;
17145;SDS011;8688;54.444;18.444;2023-07-31T02:21:12;2.92;;;1.65;;
17145;SDS011;8688;54.444;18.444;2023-07-31T02:23:39;3.70;;;1.80;;
17145;SDS011;8688;54.444;18.444;2023-07-31T02:26:07;5.18;;;2.03;;
17145;SDS011;8688;54.444;18.444;2023-07-31T02:28:34;2.38;;;1.77;;
17145;SDS011;8688;54.444;18.444;2023-07-31T02:31:02;4.25;;;1.83;;
17145;SDS011;8688;54.444;18.444;2023-07-31T02:33:31;3.30;;;1.77;;
17145;SDS011;8688;54.444;18.444;2023-07-31T02:35:59;3.58;;;1.70;;
17145;SDS011;8688;54.444;18.444;2023-07-31T02:38:26;4.63;;;2.20;;
17145;SDS011;8688;54.444;18.444;2023-07-31T02:40:54;4.22;;;1.95;;
17145;SDS011;8688;54.444;18.444;2023-07-31T02:43:21;4.18;;;2.00;;
17145;SDS011;8688;54.444;18.444;2023-07-31T02:45:51;3.88;;;2.00;;
17145;SDS011;8688;54.444;18.444;2023-07-31T02:48:19;3.55;;;2.05;;
17145;SDS011;8688;54.444;18.444;2023-07-31T02:50:48;4.30;;;2.00;;
17145;SDS011;8688;54.444;18.444;2023-07-31T02:53:15;4.63;;;2.03;;
17145;SDS011;8688;54.444;18.444;2023-07-31T02:55:43;3.97;;;1.77;;
17145;SDS011;8688;54.444;18.444;2023-07-31T02:58:10;3.10;;;1.80;;
17145;SDS011;8688;54.444;18.444;2023-07-31T03:00:43;3.75;;;1.88;;
17145;SDS011;8688;54.444;18.444;2023-07-31T03:03:10;4.50;;;1.83;;
17145;SDS011;8688;54.444;18.444;2023-07-31T03:05:38;6.47;;;2.33;;
17145;SDS011;8688;54.444;18.444;2023-07-31T03:08:07;4.93;;;2.03;;
17145;SDS011;8688;54.444;18.444;2023-07-31T03:10:35;4.07;;;2.17;;
17145;SDS011;8688;54.444;18.444;2023-07-31T03:13:02;5.00;;;2.30;;
17145;SDS011;8688;54.444;18.444;2023-07-31T03:15:30;5.55;;;2.15;;
17145;SDS011;8688;54.444;18.444;2023-07-31T03:17:57;6.43;;;2.30;;
17145;SDS011;8688;54.444;18.444;2023-07-31T03:20:25;7.30;;;2.58;;
17145;SDS011;8688;54.444;18.444;2023-07-31T03:22:53;6.95;;;2.60;;
17145;SDS011;8688;54.444;18.444;2023-07-31T03:25:22;6.75;;;2.47;;
17145;SDS011;8688;54.444;18.444;2023-07-31T03:27:49;7.15;;;2.80;;
17145;SDS011;8688;54.444;18.444;2023-07-31T03:30:17;4.70;;;2.85;;
17145;SDS011;8688;54.444;18.444;2023-07-31T03:32:44;7.45;;;2.80;;
17145;SDS011;8688;54.444;18.444;2023-07-31T03:35:12;6.10;;;2.83;;
17145;SDS011;8688;54.444;18.444;2023-07-31T03:37:39;6.10;;;2.75;;
17145;SDS011;8688;54.444;18.444;2023-07-31T03:40:08;5.20;;;2.40;;
17145;SDS011;8688;54.444;18.444;2023-07-31T03:42:37;7.80;;;2.55;;
17145;SDS011;8688;54.444;18.444;2023-07-31T03:45:06;8.30;;;2.78;;
17145;SDS011;8688;54.444;18.444;2023-07-31T03:47:34;6.07;;;2.63;;
17145;SDS011;8688;54.444;18.444;2023-07-31T03:50:02;5.70;;;2.63;;
17145;SDS011;8688;54.444;18.444;2023-07-31T03:52:29;5.95;;;2.55;;
17145;SDS011;8688;54.444;18.444;2023-07-31T03:54:57;8.48;;;2.80;;
17145;SDS011;8688;54.444;18.444;2023-07-31T03:57:24;8.02;;;2.80;;
17145;SDS011;8688;54.444;18.444;2023-07-31T03:59:53;7.80;;;2.50;;
17145;SDS011;8688;54.444;18.444;2023-07-31T04:02:21;5.95;;;2.80;;
17145;SDS011;8688;54.444;18.444;2023-07-31T04:04:48;4.63;;;2.78;;
17145;SDS011;8688;54.444;18.444;2023-07-31T04:07:16;6.32;;;2.58;;
17145;SDS011;8688;54.444;18.444;2023-07-31T04:09:43;6.40;;;2.72;;
17145;SDS011;8688;54.444;18.444;2023-07-31T04:12:11;5.80;;;2.90;;
17145;SDS011;8688;54.444;18.444;2023-07-31T04:14:39;7.97;;;3.00;;
17145;SDS011;8688;54.444;18.444;2023-07-31T04:17:08;6.40;;;2.90;;
17145;SDS011;8688;54.444;18.444;2023-07-31T04:19:35;6.88;;;2.85;;
17145;SDS011;8688;54.444;18.444;2023-07-31T04:22:03;7.30;;;2.90;;
17145;SDS011;8688;54.444;18.444;2023-07-31T04:24:30;6.30;;;3.42;;
17145;SDS011;8688;54.444;18.444;2023-07-31T04:26:58;5.57;;;3.00;;
17145;SDS011;8688;54.444;18.444;2023-07-31T04:29:26;7.68;;;2.83;;
17145;SDS011;8688;54.444;18.444;2023-07-31T04:31:53;5.93;;;2.85;;
17145;SDS011;8688;54.444;18.444;2023-07-31T04:34:22;6.80;;;2.95;;
17145;SDS011;8688;54.444;18.444;2023-07-31T04:36:50;6.15;;;2.75;;
17145;SDS011;8688;54.444;18.444;2023-07-31T04:39:17;11.88;;;3.20;;
17145;SDS011;8688;54.444;18.444;2023-07-31T04:41:45;7.78;;;2.75;;
17145;SDS011;8688;54.444;18.444;2023-07-31T04:44:12;5.50;;;2.60;;
17145;SDS011;8688;54.444;18.444;2023-07-31T04:46:40;7.38;;;2.95;;
17145;SDS011;8688;54.444;18.444;2023-07-31T04:49:08;6.45;;;2.65;;
17145;SDS011;8688;54.444;18.444;2023-07-31T04:51:37;5.80;;;2.40;;
17145;SDS011;8688;54.444;18.444;2023-07-31T04:54:04;7.38;;;2.72;;
17145;SDS011;8688;54.444;18.444;2023-07-31T04:56:32;7.05;;;3.17;;
17145;SDS011;8688;54.444;18.444;2023-07-31T04:58:59;8.98;;;3.00;;
17145;SDS011;8688;54.444;18.444;2023-07-31T05:01:26;7.25;;;3.30;;
17145;SDS011;8688;54.444;18.444;2023-07-31T05:03:54;6.82;;;3.35;;
17145;SDS011;8688;54.444;18.444;2023-07-31T05:06:22;8.50;;;3.50;;
17145;SDS011;8688;54.444;18.444;2023-07-31T05:08:51;5.47;;;3.08;;
17145;SDS011;8688;54.444;18.444;2023-07-31T05:11:18;6.47;;;2.78;;
17145;SDS011;8688;54.444;18.444;2023-07-31T05:13:46;5.13;;;2.63;;
17145;SDS011;8688;54.444;18.444;2023-07-31T05:16:13;6.05;;;2.40;;
17145;SDS011;8688;54.444;18.444;2023-07-31T05:18:41;7.25;;;2.40;;
17145;SDS011;8688;54.444;18.444;2023-07-31T05:21:08;3.85;;;2.30;;
17145;SDS011;8688;54.444;18.444;2023-07-31T05:23:36;5.72;;;2.42;;
17145;SDS011;8688;54.444;18.444;2023-07-31T05:26:05;5.65;;;2.75;;
17145;SDS011;8688;54.444;18.444;2023-07-31T05:28:35;5.60;;;2.33;;
17145;SDS011;8688;54.444;18.444;2023-07-31T05:31:03;7.15;;;2.95;;
17145;SDS011;8688;54.444;18.444;2023-07-31T05:33:31;6.90;;;2.60;;
17145;SDS011;8688;54.444;18.444;2023-07-31T05:35:59;8.07;;;2.60;;
17145;SDS011;8688;54.444;18.444;2023-07-31T05:38:27;9.15;;;2.38;;
17145;SDS011;8688;54.444;18.444;2023-07-31T05:40:55;4.75;;;2.42;;
17145;SDS011;8688;54.444;18.444;2023-07-31T05:43:24;5.45;;;2.30;;
17145;SDS011;8688;54.444;18.444;2023-07-31T05:45:51;5.55;;;2.40;;
17145;SDS011;8688;54.444;18.444;2023-07-31T05:48:18;7.13;;;2.22;;
17145;SDS011;8688;54.444;18.444;2023-07-31T05:50:46;4.63;;;1.95;;
17145;SDS011;8688;54.444;18.444;2023-07-31T05:53:13;7.47;;;2.30;;
17145;SDS011;8688;54.444;18.444;2023-07-31T05:55:41;7.15;;;2.53;;
17145;SDS011;8688;54.444;18.444;2023-07-31T05:58:08;4.90;;;2.08;;
17145;SDS011;8688;54.444;18.444;2023-07-31T06:00:37;4.00;;;2.22;;
17145;SDS011;8688;54.444;18.444;2023-07-31T06:03:06;4.57;;;2.08;;
17145;SDS011;8688;54.444;18.444;2023-07-31T06:05:33;5.55;;;2.13;;
17145;SDS011;8688;54.444;18.444;2023-07-31T06:08:01;7.47;;;2.40;;
17145;SDS011;8688;54.444;18.444;2023-07-31T06:10:29;7.43;;;2.25;;
17145;SDS011;8688;54.444;18.444;2023-07-31T06:12:56;5.03;;;2.10;;
17145;SDS011;8688;54.444;18.444;2023-07-31T06:15:24;8.10;;;2.10;;
17145;SDS011;8688;54.444;18.444;2023-07-31T06:17:53;6.13;;;2.35;;
17145;SDS011;8688;54.444;18.444;2023-07-31T06:20:21;3.03;;;1.98;;
17145;SDS011;8688;54.444;18.444;2023-07-31T06:22:48;6.22;;;2.33;;
17145;SDS011;8688;54.444;18.444;2023-07-31T06:25:16;5.78;;;2.33;;
17145;SDS011;8688;54.444;18.444;2023-07-31T06:27:43;3.53;;;1.90;;
17145;SDS011;8688;54.444;18.444;2023-07-31T06:30:11;7.22;;;2.28;;
17145;SDS011;8688;54.444;18.444;2023-07-31T06:32:39;7.90;;;2.38;;
17145;SDS011;8688;54.444;18.444;2023-07-31T06:35:08;6.20;;;2.60;;
17145;SDS011;8688;54.444;18.444;2023-07-31T06:37:36;8.90;;;2.45;;
17145;SDS011;8688;54.444;18.444;2023-07-31T06:40:06;8.32;;;2.17;;
17145;SDS011;8688;54.444;18.444;2023-07-31T06:42:35;4.50;;;2.30;;
17145;SDS011;8688;54.444;18.444;2023-07-31T06:45:05;7.50;;;2.30;;
17145;SDS011;8688;54.444;18.444;2023-07-31T06:47:33;6.57;;;2.05;;
17145;SDS011;8688;54.444;18.444;2023-07-31T06:50:01;5.07;;;1.90;;
17145;SDS011;8688;54.444;18.444;2023-07-31T06:52:30;5.45;;;2.30;;
17145;SDS011;8688;54.444;18.444;2023-07-31T06:55:01;5.07;;;2.00;;
17145;SDS011;8688;54.444;18.444;2023-07-31T06:57:30;6.10;;;2.10;;
17145;SDS011;8688;54.444;18.444;2023-07-31T06:59:58;5.18;;;2.00;;
17145;SDS011;8688;54.444;18.444;2023-07-31T07:02:25;4.22;;;1.70;;
17145;SDS011;8688;54.444;18.444;2023-07-31T07:04:53;4.57;;;2.30;;
17145;SDS011;8688;54.444;18.444;2023-07-31T07:07:20;6.18;;;2.10;;
17145;SDS011;8688;54.444;18.444;2023-07-31T07:09:49;4.95;;;1.70;;
17145;SDS011;8688;54.444;18.444;2023-07-31T07:12:17;8.57;;;2.20;;
17145;SDS011;8688;54.444;18.444;2023-07-31T07:14:45;4.03;;;1.85;;
17145;SDS011;8688;54.444;18.444;2023-07-31T07:17:13;4.68;;;1.70;;
17145;SDS011;8688;54.444;18.444;2023-07-31T07:19:40;5.05;;;2.03;;
17145;SDS011;8688;54.444;18.444;2023-07-31T07:22:08;4.45;;;1.70;;
17145;SDS011;8688;54.444;18.444;2023-07-31T07:24:38;3.83;;;1.58;;
17145;SDS011;8688;54.444;18.444;2023-07-31T07:27:07;4.57;;;1.23;;
17145;SDS011;8688;54.444;18.444;2023-07-31T07:29:35;5.72;;;1.50;;
17145;SDS011;8688;54.444;18.444;2023-07-31T07:32:04;3.45;;;1.48;;
17145;SDS011;8688;54.444;18.444;2023-07-31T07:34:32;4.22;;;1.58;;
17145;SDS011;8688;54.444;18.444;2023-07-31T07:37:00;1.88;;;1.23;;
17145;SDS011;8688;54.444;18.444;2023-07-31T07:39:28;6.18;;;1.80;;
17145;SDS011;8688;54.444;18.444;2023-07-31T07:41:55;4.18;;;1.60;;
17145;SDS011;8688;54.444;18.444;2023-07-31T07:44:24;3.45;;;1.75;;
17145;SDS011;8688;54.444;18.444;2023-07-31T07:46:52;4.70;;;1.45;;
17145;SDS011;8688;54.444;18.444;2023-07-31T07:49:19;4.22;;;2.05;;
17145;SDS011;8688;54.444;18.444;2023-07-31T07:51:47;4.72;;;1.95;;
17145;SDS011;8688;54.444;18.444;2023-07-31T07:54:15;5.68;;;1.25;;
17145;SDS011;8688;54.444;18.444;2023-07-31T07:56:43;4.68;;;1.10;;
17145;SDS011;8688;54.444;18.444;2023-07-31T07:59:11;2.40;;;1.10;;
17145;SDS011;8688;54.444;18.444;2023-07-31T08:01:39;2.35;;;1.20;;
17145;SDS011;8688;54.444;18.444;2023-07-31T08:04:07;3.80;;;1.20;;
17145;SDS011;8688;54.444;18.444;2023-07-31T08:06:35;4.32;;;1.30;;
17145;SDS011;8688;54.444;18.444;2023-07-31T08:09:03;2.63;;;1.27;;
17145;SDS011;8688;54.444;18.444;2023-07-31T08:11:31;2.22;;;1.17;;
17145;SDS011;8688;54.444;18.444;2023-07-31T08:13:59;4.20;;;1.45;;
17145;SDS011;8688;54.444;18.444;2023-07-31T08:16:27;3.50;;;1.40;;
17145;SDS011;8688;54.444;18.444;2023-07-31T08:18:55;3.60;;;1.35;;
17145;SDS011;8688;54.444;18.444;2023-07-31T08:21:23;3.95;;;1.38;;
17145;SDS011;8688;54.444;18.444;2023-07-31T08:23:51;3.92;;;1.70;;
17145;SDS011;8688;54.444;18.444;2023-07-31T08:26:18;2.95;;;1.10;;
17145;SDS011;8688;54.444;18.444;2023-07-31T08:28:46;2.63;;;1.45;;
17145;SDS011;8688;54.444;18.444;2023-07-31T08:31:14;2.38;;;1.15;;
17145;SDS011;8688;54.444;18.444;2023-07-31T08:33:41;4.15;;;1.30;;
17145;SDS011;8688;54.444;18.444;2023-07-31T08:36:10;3.38;;;1.35;;
17145;SDS011;8688;54.444;18.444;2023-07-31T08:38:38;3.60;;;1.33;;
17145;SDS011;8688;54.444;18.444;2023-07-31T08:41:06;4.55;;;1.40;;
17145;SDS011;8688;54.444;18.444;2023-07-31T08:43:34;3.38;;;1.48;;
17145;SDS011;8688;54.444;18.444;2023-07-31T08:46:04;5.68;;;1.65;;
17145;SDS011;8688;54.444;18.444;2023-07-31T08:48:33;3.67;;;1.55;;
17145;SDS011;8688;54.444;18.444;2023-07-31T08:51:04;4.47;;;1.25;;
17145;SDS011;8688;54.444;18.444;2023-07-31T08:53:34;3.58;;;1.50;;
17145;SDS011;8688;54.444;18.444;2023-07-31T08:56:01;5.25;;;1.38;;
17145;SDS011;8688;54.444;18.444;2023-07-31T08:58:31;1.67;;;1.25;;
17145;SDS011;8688;54.444;18.444;2023-07-31T09:01:00;2.10;;;1.02;;
17145;SDS011;8688;54.444;18.444;2023-07-31T09:03:31;3.28;;;1.17;;
17145;SDS011;8688;54.444;18.444;2023-07-31T09:06:00;2.90;;;1.10;;
17145;SDS011;8688;54.444;18.444;2023-07-31T09:08:31;2.35;;;1.10;;
17145;SDS011;8688;54.444;18.444;2023-07-31T09:11:01;3.83;;;1.10;;
17145;SDS011;8688;54.444;18.444;2023-07-31T09:13:30;2.33;;;1.08;;
17145;SDS011;8688;54.444;18.444;2023-07-31T09:15:59;1.88;;;0.90;;
17145;SDS011;8688;54.444;18.444;2023-07-31T09:18:26;2.33;;;1.00;;
17145;SDS011;8688;54.444;18.444;2023-07-31T09:21:00;3.30;;;1.05;;
17145;SDS011;8688;54.444;18.444;2023-07-31T09:23:44;3.72;;;1.00;;
17145;SDS011;8688;54.444;18.444;2023-07-31T09:26:13;3.80;;;1.20;;
17145;SDS011;8688;54.444;18.444;2023-07-31T09:28:56;2.30;;;0.90;;
17145;SDS011;8688;54.444;18.444;2023-07-31T09:31:31;1.75;;;0.85;;
17145;SDS011;8688;54.444;18.444;2023-07-31T09:34:02;4.43;;;0.95;;
17145;SDS011;8688;54.444;18.444;2023-07-31T09:36:30;6.13;;;1.20;;
17145;SDS011;8688;54.444;18.444;2023-07-31T09:39:02;2.55;;;1.05;;
17145;SDS011;8688;54.444;18.444;2023-07-31T09:41:30;3.85;;;1.00;;
17145;SDS011;8688;54.444;18.444;2023-07-31T09:44:02;2.00;;;1.10;;
17145;SDS011;8688;54.444;18.444;2023-07-31T09:46:30;1.35;;;0.95;;
17145;SDS011;8688;54.444;18.444;2023-07-31T09:49:05;7.20;;;1.40;;
17145;SDS011;8688;54.444;18.444;2023-07-31T09:51:34;2.55;;;1.30;;
17145;SDS011;8688;54.444;18.444;2023-07-31T09:54:06;3.38;;;1.08;;
17145;SDS011;8688;54.444;18.444;2023-07-31T09:56:38;7.32;;;1.73;;
17145;SDS011;8688;54.444;18.444;2023-07-31T09:59:10;2.67;;;1.08;;
17145;SDS011;8688;54.444;18.444;2023-07-31T10:01:39;2.85;;;1.00;;
17145;SDS011;8688;54.444;18.444;2023-07-31T10:04:08;2.05;;;1.05;;
17145;SDS011;8688;54.444;18.444;2023-07-31T10:06:36;2.60;;;1.00;;
17145;SDS011;8688;54.444;18.444;2023-07-31T10:09:09;3.38;;;1.33;;
17145;SDS011;8688;54.444;18.444;2023-07-31T10:11:41;3.92;;;1.08;;
17145;SDS011;8688;54.444;18.444;2023-07-31T10:14:10;3.55;;;1.05;;
17145;SDS011;8688;54.444;18.444;2023-07-31T10:16:38;5.68;;;1.85;;
17145;SDS011;8688;54.444;18.444;2023-07-31T10:19:06;3.55;;;1.17;;
17145;SDS011;8688;54.444;18.444;2023-07-31T10:21:35;2.53;;;1.02;;
17145;SDS011;8688;54.444;18.444;2023-07-31T10:24:04;4.57;;;1.38;;
17145;SDS011;8688;54.444;18.444;2023-07-31T10:26:34;2.58;;;1.20;;
17145;SDS011;8688;54.444;18.444;2023-07-31T10:29:04;2.85;;;0.98;;
17145;SDS011;8688;54.444;18.444;2023-07-31T10:31:32;2.30;;;1.20;;
17145;SDS011;8688;54.444;18.444;2023-07-31T10:34:01;5.03;;;1.20;;
17145;SDS011;8688;54.444;18.444;2023-07-31T10:36:29;2.88;;;1.20;;
17145;SDS011;8688;54.444;18.444;2023-07-31T10:38:57;4.25;;;1.33;;
17145;SDS011;8688;54.444;18.444;2023-07-31T10:41:29;3.60;;;1.20;;
17145;SDS011;8688;54.444;18.444;2023-07-31T10:43:57;2.25;;;0.93;;
17145;SDS011;8688;54.444;18.444;2023-07-31T10:46:26;3.03;;;1.45;;
17145;SDS011;8688;54.444;18.444;2023-07-31T10:48:58;4.38;;;1.40;;
17145;SDS011;8688;54.444;18.444;2023-07-31T10:51:32;3.92;;;0.90;;
17145;SDS011;8688;54.444;18.444;2023-07-31T10:54:13;1.95;;;0.98;;
17145;SDS011;8688;54.444;18.444;2023-07-31T10:56:46;5.40;;;1.10;;
17145;SDS011;8688;54.444;18.444;2023-07-31T10:59:13;2.17;;;1.10;;
17145;SDS011;8688;54.444;18.444;2023-07-31T11:01:52;2.42;;;0.93;;
17145;SDS011;8688;54.444;18.444;2023-07-31T11:04:22;2.40;;;1.00;;
17145;SDS011;8688;54.444;18.444;2023-07-31T11:06:56;2.35;;;1.02;;
17145;SDS011;8688;54.444;18.444;2023-07-31T11:09:25;2.97;;;1.05;;
17145;SDS011;8688;54.444;18.444;2023-07-31T11:11:58;1.42;;;0.80;;
17145;SDS011;8688;54.444;18.444;2023-07-31T11:14:26;2.83;;;1.23;;
17145;SDS011;8688;54.444;18.444;2023-07-31T11:16:53;1.73;;;1.02;;
17145;SDS011;8688;54.444;18.444;2023-07-31T11:19:21;2.53;;;1.00;;
17145;SDS011;8688;54.444;18.444;2023-07-31T11:21:49;2.25;;;1.20;;
17145;SDS011;8688;54.444;18.444;2023-07-31T11:24:18;3.63;;;1.23;;
17145;SDS011;8688;54.444;18.444;2023-07-31T11:26:49;2.13;;;1.10;;
17145;SDS011;8688;54.444;18.444;2023-07-31T11:29:19;4.57;;;1.23;;
17145;SDS011;8688;54.444;18.444;2023-07-31T11:31:47;3.97;;;1.63;;
17145;SDS011;8688;54.444;18.444;2023-07-31T11:34:17;5.70;;;1.13;;
17145;SDS011;8688;54.444;18.444;2023-07-31T11:36:53;3.22;;;1.30;;
17145;SDS011;8688;54.444;18.444;2023-07-31T11:39:21;3.95;;;1.30;;
17145;SDS011;8688;54.444;18.444;2023-07-31T11:41:48;2.42;;;1.10;;
17145;SDS011;8688;54.444;18.444;2023-07-31T11:44:26;3.92;;;1.30;;
17145;SDS011;8688;54.444;18.444;2023-07-31T11:47:05;5.25;;;1.20;;
17145;SDS011;8688;54.444;18.444;2023-07-31T11:49:33;7.40;;;1.15;;
17145;SDS011;8688;54.444;18.444;2023-07-31T11:52:04;3.28;;;1.30;;
17145;SDS011;8688;54.444;18.444;2023-07-31T11:54:32;5.05;;;1.50;;
17145;SDS011;8688;54.444;18.444;2023-07-31T11:56:59;2.63;;;1.40;;
17145;SDS011;8688;54.444;18.444;2023-07-31T11:59:29;2.85;;;1.23;;
17145;SDS011;8688;54.444;18.444;2023-07-31T12:01:56;5.13;;;1.35;;
17145;SDS011;8688;54.444;18.444;2023-07-31T12:04:24;5.85;;;1.40;;
17145;SDS011;8688;54.444;18.444;2023-07-31T12:06:52;3.55;;;1.75;;
17145;SDS011;8688;54.444;18.444;2023-07-31T12:09:20;4.75;;;1.45;;
17145;SDS011;8688;54.444;18.444;2023-07-31T12:11:48;13.35;;;1.50;;
17145;SDS011;8688;54.444;18.444;2023-07-31T12:14:19;3.00;;;1.13;;
17145;SDS011;8688;54.444;18.444;2023-07-31T12:16:49;6.88;;;1.60;;
17145;SDS011;8688;54.444;18.444;2023-07-31T12:19:21;6.20;;;1.48;;
17145;SDS011;8688;54.444;18.444;2023-07-31T12:21:49;7.50;;;1.63;;
17145;SDS011;8688;54.444;18.444;2023-07-31T12:24:17;2.85;;;1.35;;
17145;SDS011;8688;54.444;18.444;2023-07-31T12:26:45;5.07;;;1.35;;
17145;SDS011;8688;54.444;18.444;2023-07-31T12:29:14;4.18;;;1.60;;
17145;SDS011;8688;54.444;18.444;2023-07-31T12:31:42;4.22;;;1.30;;
17145;SDS011;8688;54.444;18.444;2023-07-31T12:34:17;4.50;;;1.65;;
17145;SDS011;8688;54.444;18.444;2023-07-31T12:36:47;2.63;;;1.67;;
17145;SDS011;8688;54.444;18.444;2023-07-31T12:39:14;8.13;;;1.35;;
17145;SDS011;8688;54.444;18.444;2023-07-31T12:41:42;10.45;;;1.85;;
17145;SDS011;8688;54.444;18.444;2023-07-31T12:44:10;19.45;;;2.35;;
17145;SDS011;8688;54.444;18.444;2023-07-31T12:46:37;7.63;;;1.50;;
17145;SDS011;8688;54.444;18.444;2023-07-31T12:49:05;4.22;;;1.30;;
17145;SDS011;8688;54.444;18.444;2023-07-31T12:51:34;6.10;;;1.50;;
17145;SDS011;8688;54.444;18.444;2023-07-31T12:54:01;3.08;;;1.52;;
17145;SDS011;8688;54.444;18.444;2023-07-31T12:56:29;3.63;;;1.40;;
17145;SDS011;8688;54.444;18.444;2023-07-31T12:58:57;4.45;;;1.42;;
17145;SDS011;8688;54.444;18.444;2023-07-31T13:01:24;2.63;;;1.45;;
17145;SDS011;8688;54.444;18.444;2023-07-31T13:03:52;8.88;;;1.60;;
17145;SDS011;8688;54.444;18.444;2023-07-31T13:06:19;5.07;;;1.58;;
17145;SDS011;8688;54.444;18.444;2023-07-31T13:08:48;5.65;;;1.50;;
17145;SDS011;8688;54.444;18.444;2023-07-31T13:11:16;3.25;;;1.50;;
17145;SDS011;8688;54.444;18.444;2023-07-31T13:13:44;5.68;;;1.63;;
17145;SDS011;8688;54.444;18.444;2023-07-31T13:16:11;4.18;;;2.00;;
17145;SDS011;8688;54.444;18.444;2023-07-31T13:18:39;4.40;;;1.63;;
17145;SDS011;8688;54.444;18.444;2023-07-31T13:21:09;2.60;;;1.33;;
17145;SDS011;8688;54.444;18.444;2023-07-31T13:23:37;3.30;;;1.40;;
17145;SDS011;8688;54.444;18.444;2023-07-31T13:26:06;5.93;;;1.90;;
17145;SDS011;8688;54.444;18.444;2023-07-31T13:28:36;3.28;;;1.60;;
17145;SDS011;8688;54.444;18.444;2023-07-31T13:31:04;4.50;;;1.70;;
17145;SDS011;8688;54.444;18.444;2023-07-31T13:33:33;3.85;;;1.70;;
17145;SDS011;8688;54.444;18.444;2023-07-31T13:36:00;3.53;;;1.50;;
17145;SDS011;8688;54.444;18.444;2023-07-31T13:38:28;4.30;;;1.75;;
17145;SDS011;8688;54.444;18.444;2023-07-31T13:40:55;5.25;;;1.70;;
17145;SDS011;8688;54.444;18.444;2023-07-31T13:43:24;3.20;;;1.75;;
17145;SDS011;8688;54.444;18.444;2023-07-31T13:45:52;4.20;;;1.70;;
17145;SDS011;8688;54.444;18.444;2023-07-31T13:48:19;5.38;;;1.40;;
17145;SDS011;8688;54.444;18.444;2023-07-31T13:50:47;3.78;;;1.42;;
17145;SDS011;8688;54.444;18.444;2023-07-31T13:53:15;2.42;;;1.42;;
17145;SDS011;8688;54.444;18.444;2023-07-31T13:55:42;2.10;;;1.35;;
17145;SDS011;8688;54.444;18.444;2023-07-31T13:58:11;5.85;;;1.40;;
17145;SDS011;8688;54.444;18.444;2023-07-31T14:00:39;1.92;;;1.27;;
17145;SDS011;8688;54.444;18.444;2023-07-31T14:03:07;3.20;;;1.58;;
17145;SDS011;8688;54.444;18.444;2023-07-31T14:05:35;3.10;;;1.50;;
17145;SDS011;8688;54.444;18.444;2023-07-31T14:08:02;5.68;;;1.80;;
17145;SDS011;8688;54.444;18.444;2023-07-31T14:10:31;2.70;;;1.40;;
17145;SDS011;8688;54.444;18.444;2023-07-31T14:12:58;5.53;;;1.63;;
17145;SDS011;8688;54.444;18.444;2023-07-31T14:15:26;5.50;;;1.50;;
17145;SDS011;8688;54.444;18.444;2023-07-31T14:17:55;4.60;;;1.70;;
17145;SDS011;8688;54.444;18.444;2023-07-31T14:20:22;2.58;;;1.58;;
17145;SDS011;8688;54.444;18.444;2023-07-31T14:22:50;3.45;;;1.60;;
17145;SDS011;8688;54.444;18.444;2023-07-31T14:25:17;4.35;;;1.48;;
17145;SDS011;8688;54.444;18.444;2023-07-31T14:27:45;4.80;;;1.70;;
17145;SDS011;8688;54.444;18.444;2023-07-31T14:30:13;3.10;;;1.65;;
17145;SDS011;8688;54.444;18.444;2023-07-31T14:32:41;2.22;;;1.40;;
17145;SDS011;8688;54.444;18.444;2023-07-31T14:35:10;5.22;;;1.45;;
17145;SDS011;8688;54.444;18.444;2023-07-31T14:37:38;4.82;;;1.50;;
17145;SDS011;8688;54.444;18.444;2023-07-31T14:40:07;3.83;;;1.30;;
17145;SDS011;8688;54.444;18.444;2023-07-31T14:42:36;1.67;;;1.20;;
17145;SDS011;8688;54.444;18.444;2023-07-31T14:45:05;2.22;;;1.20;;
17145;SDS011;8688;54.444;18.444;2023-07-31T14:47:35;4.07;;;1.30;;
17145;SDS011;8688;54.444;18.444;2023-07-31T14:50:03;3.55;;;1.40;;
17145;SDS011;8688;54.444;18.444;2023-07-31T14:52:33;4.32;;;1.30;;
17145;SDS011;8688;54.444;18.444;2023-07-31T14:55:00;2.17;;;1.35;;
17145;SDS011;8688;54.444;18.444;2023-07-31T14:57:28;1.52;;;1.35;;